DFCT weather

Tenado Airport
Tenado, Sanguie, Burkina Faso

Public forecast

Using degrees Celsius for public forecast. Weather courtesy of forecast.io.

METAR (pilot weather report)

Report is more than 6 hours old.

Closest report is Ouagadougou Airport, 63.5 nm (117.6 km) E. Retrieved 2019/03/22 04:00 UTC (12 hours ago):

DFFD 220400Z 35006KT CAVOK 29/M03 Q1008 NOSIG

TAF (pilot weather forecast)

Forecast is more than 12 hours old.

Closest forecast is Ouagadougou Airport, 63.5 nm (117.6 km) E. Retrieved 2019/03/21 00:22 UTC (2 days ago):

TAF DFFD 212300Z 2200/2306 36008KT 8000 NSC TEMPO 2206/2210 4000 DU TEMPO 2217/2220 4000 DU